Portada
METAR-TAF:

METAR-TAF

Aeropuertos :

Searcy Municipal Airport

Searcy, Arkansas, Estados Unidos

latitud: 35-12-43N, longitud: 091-44-14W, altitud: 81 m

Observación

El informe se hizo hace 41 minutos, a las 00:56 UTC
Viento 3 kt del suroeste
Temperatura 22°C
Humedad 83%
Presión 1013 hPa
Visibilidad: 16.1 km
Nubes dispersas a una altura de 12000 ft

METAR: KSRC 290056Z AUTO 23003KT 10SM SCT120 22/19 A2992 RMK AO2 SLP129 T02170189

Hora: 20:37 (01:37 UTC)


TAF: falta

Observaciones y pronósticos meteorológicos de más de 4000 aeropuertos (mensajes METAR y TAF).

Los puntos amarillos y rojos representan las estaciones disponibles.

Ponga el ratón en el punto deseado para ver el nombre de la estación.

Haga clic para ver las observaciones y los pronósticos meteorológicos.

Para cambiar el mapa : haga clic en los botones verdes con una cruz de color negro para hacer un zoom, en el botón verde con un guión para alejar o en las flechas verdes para mapas adyacentes.


METAR-TAF: